sensor_id;sensor_type;location;lat;lon;timestamp;P1;durP1;ratioP1;P2;durP2;ratioP2
29382;SDS011;16365;51.598;7.668;2023-02-21T00:01:37;47.78;;;27.73;;
29382;SDS011;16365;51.598;7.668;2023-02-21T00:04:22;49.85;;;28.50;;
29382;SDS011;16365;51.598;7.668;2023-02-21T00:07:07;50.67;;;27.73;;
29382;SDS011;16365;51.598;7.668;2023-02-21T00:09:52;57.88;;;30.17;;
29382;SDS011;16365;51.598;7.668;2023-02-21T00:12:37;57.53;;;29.92;;
29382;SDS011;16365;51.598;7.668;2023-02-21T00:15:22;55.00;;;29.63;;
29382;SDS011;16365;51.598;7.668;2023-02-21T00:18:07;53.03;;;29.73;;
29382;SDS011;16365;51.598;7.668;2023-02-21T00:20:52;55.15;;;29.83;;
29382;SDS011;16365;51.598;7.668;2023-02-21T00:23:37;58.53;;;31.80;;
29382;SDS011;16365;51.598;7.668;2023-02-21T00:26:22;55.58;;;30.20;;
29382;SDS011;16365;51.598;7.668;2023-02-21T00:29:07;55.75;;;28.77;;
29382;SDS011;16365;51.598;7.668;2023-02-21T00:31:52;59.35;;;29.73;;
29382;SDS011;16365;51.598;7.668;2023-02-21T00:34:38;60.35;;;31.63;;
29382;SDS011;16365;51.598;7.668;2023-02-21T00:37:23;58.42;;;32.30;;
29382;SDS011;16365;51.598;7.668;2023-02-21T00:40:10;58.90;;;31.88;;
29382;SDS011;16365;51.598;7.668;2023-02-21T00:42:56;61.58;;;32.45;;
29382;SDS011;16365;51.598;7.668;2023-02-21T00:45:41;60.15;;;30.80;;
29382;SDS011;16365;51.598;7.668;2023-02-21T00:48:26;70.65;;;33.30;;
29382;SDS011;16365;51.598;7.668;2023-02-21T00:51:14;69.40;;;34.43;;
29382;SDS011;16365;51.598;7.668;2023-02-21T00:54:00;66.10;;;33.17;;
29382;SDS011;16365;51.598;7.668;2023-02-21T00:56:45;63.25;;;32.50;;
29382;SDS011;16365;51.598;7.668;2023-02-21T00:59:30;62.72;;;33.00;;
29382;SDS011;16365;51.598;7.668;2023-02-21T01:02:15;67.15;;;33.33;;
29382;SDS011;16365;51.598;7.668;2023-02-21T01:05:00;66.43;;;33.58;;
29382;SDS011;16365;51.598;7.668;2023-02-21T01:07:45;63.33;;;33.72;;
29382;SDS011;16365;51.598;7.668;2023-02-21T01:10:30;63.83;;;34.22;;
29382;SDS011;16365;51.598;7.668;2023-02-21T01:13:15;73.82;;;34.55;;
29382;SDS011;16365;51.598;7.668;2023-02-21T01:16:00;67.70;;;33.38;;
29382;SDS011;16365;51.598;7.668;2023-02-21T01:18:45;67.13;;;33.03;;
29382;SDS011;16365;51.598;7.668;2023-02-21T01:21:30;65.25;;;32.58;;
29382;SDS011;16365;51.598;7.668;2023-02-21T01:24:16;67.80;;;32.95;;
29382;SDS011;16365;51.598;7.668;2023-02-21T01:27:01;68.63;;;33.67;;
29382;SDS011;16365;51.598;7.668;2023-02-21T01:29:46;72.13;;;35.15;;
29382;SDS011;16365;51.598;7.668;2023-02-21T01:32:32;68.20;;;34.17;;
29382;SDS011;16365;51.598;7.668;2023-02-21T01:35:17;62.38;;;33.08;;
29382;SDS011;16365;51.598;7.668;2023-02-21T01:38:02;71.32;;;34.75;;
29382;SDS011;16365;51.598;7.668;2023-02-21T01:40:48;72.22;;;34.53;;
29382;SDS011;16365;51.598;7.668;2023-02-21T01:43:33;66.55;;;34.38;;
29382;SDS011;16365;51.598;7.668;2023-02-21T01:46:19;67.93;;;33.72;;
29382;SDS011;16365;51.598;7.668;2023-02-21T01:49:06;76.40;;;35.30;;
29382;SDS011;16365;51.598;7.668;2023-02-21T01:51:54;71.28;;;36.20;;
29382;SDS011;16365;51.598;7.668;2023-02-21T01:54:43;72.28;;;35.15;;
29382;SDS011;16365;51.598;7.668;2023-02-21T01:57:33;77.50;;;35.33;;
29382;SDS011;16365;51.598;7.668;2023-02-21T02:00:20;69.50;;;35.78;;
29382;SDS011;16365;51.598;7.668;2023-02-21T02:03:06;71.13;;;35.60;;
29382;SDS011;16365;51.598;7.668;2023-02-21T02:08:44;75.65;;;35.97;;
29382;SDS011;16365;51.598;7.668;2023-02-21T02:23:19;73.22;;;35.80;;
29382;SDS011;16365;51.598;7.668;2023-02-21T02:32:09;84.20;;;37.05;;
29382;SDS011;16365;51.598;7.668;2023-02-21T02:43:33;79.43;;;37.67;;
29382;SDS011;16365;51.598;7.668;2023-02-21T02:46:13;82.30;;;36.85;;
29382;SDS011;16365;51.598;7.668;2023-02-21T02:51:16;84.65;;;38.15;;
29382;SDS011;16365;51.598;7.668;2023-02-21T02:53:43;93.43;;;40.45;;
29382;SDS011;16365;51.598;7.668;2023-02-21T02:56:10;91.20;;;40.25;;
29382;SDS011;16365;51.598;7.668;2023-02-21T02:58:43;87.60;;;40.53;;
29382;SDS011;16365;51.598;7.668;2023-02-21T03:01:25;83.97;;;38.38;;
29382;SDS011;16365;51.598;7.668;2023-02-21T03:07:22;82.10;;;37.65;;
29382;SDS011;16365;51.598;7.668;2023-02-21T03:17:56;86.10;;;38.33;;
29382;SDS011;16365;51.598;7.668;2023-02-21T03:20:30;85.13;;;37.72;;
29382;SDS011;16365;51.598;7.668;2023-02-21T03:22:58;86.68;;;40.13;;
29382;SDS011;16365;51.598;7.668;2023-02-21T03:25:28;88.38;;;38.65;;
29382;SDS011;16365;51.598;7.668;2023-02-21T03:27:58;87.32;;;39.30;;
29382;SDS011;16365;51.598;7.668;2023-02-21T03:30:27;84.47;;;39.28;;
29382;SDS011;16365;51.598;7.668;2023-02-21T03:32:56;78.97;;;36.67;;
29382;SDS011;16365;51.598;7.668;2023-02-21T03:35:23;90.60;;;39.42;;
29382;SDS011;16365;51.598;7.668;2023-02-21T03:37:54;91.80;;;39.67;;
29382;SDS011;16365;51.598;7.668;2023-02-21T03:40:27;88.63;;;37.88;;
29382;SDS011;16365;51.598;7.668;2023-02-21T03:42:56;86.50;;;38.33;;
29382;SDS011;16365;51.598;7.668;2023-02-21T03:45:25;98.70;;;40.80;;
29382;SDS011;16365;51.598;7.668;2023-02-21T03:47:51;88.70;;;40.53;;
29382;SDS011;16365;51.598;7.668;2023-02-21T03:50:18;102.32;;;41.70;;
29382;SDS011;16365;51.598;7.668;2023-02-21T03:52:44;90.38;;;40.13;;
29382;SDS011;16365;51.598;7.668;2023-02-21T03:55:11;89.47;;;41.30;;
29382;SDS011;16365;51.598;7.668;2023-02-21T03:57:37;93.55;;;42.83;;
29382;SDS011;16365;51.598;7.668;2023-02-21T04:00:04;95.38;;;42.35;;
29382;SDS011;16365;51.598;7.668;2023-02-21T04:02:32;101.32;;;40.28;;
29382;SDS011;16365;51.598;7.668;2023-02-21T04:04:59;94.07;;;41.30;;
29382;SDS011;16365;51.598;7.668;2023-02-21T04:07:25;99.53;;;41.83;;
29382;SDS011;16365;51.598;7.668;2023-02-21T04:09:51;96.60;;;41.03;;
29382;SDS011;16365;51.598;7.668;2023-02-21T04:12:18;94.47;;;39.50;;
29382;SDS011;16365;51.598;7.668;2023-02-21T04:14:44;96.10;;;40.97;;
29382;SDS011;16365;51.598;7.668;2023-02-21T04:17:11;91.18;;;40.58;;
29382;SDS011;16365;51.598;7.668;2023-02-21T04:19:38;97.70;;;40.50;;
29382;SDS011;16365;51.598;7.668;2023-02-21T04:22:05;92.32;;;41.83;;
29382;SDS011;16365;51.598;7.668;2023-02-21T04:24:32;90.90;;;42.03;;
29382;SDS011;16365;51.598;7.668;2023-02-21T04:26:59;99.93;;;42.55;;
29382;SDS011;16365;51.598;7.668;2023-02-21T04:29:27;100.90;;;42.55;;
29382;SDS011;16365;51.598;7.668;2023-02-21T04:31:54;96.20;;;40.83;;
29382;SDS011;16365;51.598;7.668;2023-02-21T04:34:21;98.40;;;41.72;;
29382;SDS011;16365;51.598;7.668;2023-02-21T04:36:47;98.05;;;42.42;;
29382;SDS011;16365;51.598;7.668;2023-02-21T04:39:14;100.05;;;42.10;;
29382;SDS011;16365;51.598;7.668;2023-02-21T04:41:41;105.13;;;44.00;;
29382;SDS011;16365;51.598;7.668;2023-02-21T04:44:07;101.13;;;43.25;;
29382;SDS011;16365;51.598;7.668;2023-02-21T04:46:35;92.03;;;41.35;;
29382;SDS011;16365;51.598;7.668;2023-02-21T04:49:02;101.32;;;42.22;;
29382;SDS011;16365;51.598;7.668;2023-02-21T04:51:28;100.35;;;43.47;;
29382;SDS011;16365;51.598;7.668;2023-02-21T04:53:55;95.07;;;41.20;;
29382;SDS011;16365;51.598;7.668;2023-02-21T04:56:23;98.20;;;43.00;;
29382;SDS011;16365;51.598;7.668;2023-02-21T04:58:55;97.68;;;42.17;;
29382;SDS011;16365;51.598;7.668;2023-02-21T05:01:21;100.03;;;42.40;;
29382;SDS011;16365;51.598;7.668;2023-02-21T05:03:53;105.85;;;45.05;;
29382;SDS011;16365;51.598;7.668;2023-02-21T05:06:23;101.13;;;41.13;;
29382;SDS011;16365;51.598;7.668;2023-02-21T05:08:50;90.22;;;41.55;;
29382;SDS011;16365;51.598;7.668;2023-02-21T05:11:17;93.35;;;41.33;;
29382;SDS011;16365;51.598;7.668;2023-02-21T05:13:45;100.50;;;43.75;;
29382;SDS011;16365;51.598;7.668;2023-02-21T05:16:12;100.32;;;44.38;;
29382;SDS011;16365;51.598;7.668;2023-02-21T05:18:42;104.78;;;45.00;;
29382;SDS011;16365;51.598;7.668;2023-02-21T05:21:11;103.03;;;43.92;;
29382;SDS011;16365;51.598;7.668;2023-02-21T05:23:39;94.93;;;42.22;;
29382;SDS011;16365;51.598;7.668;2023-02-21T05:26:07;97.00;;;42.67;;
29382;SDS011;16365;51.598;7.668;2023-02-21T05:28:38;99.70;;;41.38;;
29382;SDS011;16365;51.598;7.668;2023-02-21T05:33:33;90.63;;;39.42;;
29382;SDS011;16365;51.598;7.668;2023-02-21T05:36:00;94.95;;;40.42;;
29382;SDS011;16365;51.598;7.668;2023-02-21T05:38:26;98.50;;;43.33;;
29382;SDS011;16365;51.598;7.668;2023-02-21T05:40:53;89.35;;;41.05;;
29382;SDS011;16365;51.598;7.668;2023-02-21T05:43:19;93.00;;;42.15;;
29382;SDS011;16365;51.598;7.668;2023-02-21T05:45:49;88.32;;;40.70;;
29382;SDS011;16365;51.598;7.668;2023-02-21T05:48:17;91.68;;;41.03;;
29382;SDS011;16365;51.598;7.668;2023-02-21T05:50:44;84.85;;;38.88;;
29382;SDS011;16365;51.598;7.668;2023-02-21T05:53:10;87.43;;;38.17;;
29382;SDS011;16365;51.598;7.668;2023-02-21T05:55:37;84.13;;;39.50;;
29382;SDS011;16365;51.598;7.668;2023-02-21T05:58:03;89.05;;;39.25;;
29382;SDS011;16365;51.598;7.668;2023-02-21T06:00:30;80.10;;;38.63;;
29382;SDS011;16365;51.598;7.668;2023-02-21T06:02:58;80.72;;;38.03;;
29382;SDS011;16365;51.598;7.668;2023-02-21T06:05:25;81.35;;;38.03;;
29382;SDS011;16365;51.598;7.668;2023-02-21T06:07:52;80.35;;;37.05;;
29382;SDS011;16365;51.598;7.668;2023-02-21T06:10:18;84.50;;;38.13;;
29382;SDS011;16365;51.598;7.668;2023-02-21T06:12:46;82.57;;;39.50;;
29382;SDS011;16365;51.598;7.668;2023-02-21T06:15:13;82.20;;;36.88;;
29382;SDS011;16365;51.598;7.668;2023-02-21T06:17:41;77.38;;;35.97;;
29382;SDS011;16365;51.598;7.668;2023-02-21T06:20:11;83.55;;;36.00;;
29382;SDS011;16365;51.598;7.668;2023-02-21T06:22:40;83.45;;;38.00;;
29382;SDS011;16365;51.598;7.668;2023-02-21T06:25:06;85.07;;;39.40;;
29382;SDS011;16365;51.598;7.668;2023-02-21T06:27:33;89.95;;;38.83;;
29382;SDS011;16365;51.598;7.668;2023-02-21T06:30:00;85.70;;;38.25;;
29382;SDS011;16365;51.598;7.668;2023-02-21T06:32:27;86.80;;;37.05;;
29382;SDS011;16365;51.598;7.668;2023-02-21T06:34:53;79.38;;;37.13;;
29382;SDS011;16365;51.598;7.668;2023-02-21T06:37:20;90.65;;;39.88;;
29382;SDS011;16365;51.598;7.668;2023-02-21T06:39:46;94.80;;;41.33;;
29382;SDS011;16365;51.598;7.668;2023-02-21T06:42:15;92.25;;;39.83;;
29382;SDS011;16365;51.598;7.668;2023-02-21T06:44:47;91.30;;;40.45;;
29382;SDS011;16365;51.598;7.668;2023-02-21T06:47:18;93.68;;;40.60;;
29382;SDS011;16365;51.598;7.668;2023-02-21T06:49:46;90.80;;;38.47;;
29382;SDS011;16365;51.598;7.668;2023-02-21T06:52:14;89.53;;;39.17;;
29382;SDS011;16365;51.598;7.668;2023-02-21T06:54:41;90.35;;;38.28;;
29382;SDS011;16365;51.598;7.668;2023-02-21T06:57:13;95.10;;;40.78;;
29382;SDS011;16365;51.598;7.668;2023-02-21T06:59:40;90.28;;;40.03;;
29382;SDS011;16365;51.598;7.668;2023-02-21T07:02:07;94.70;;;39.42;;
29382;SDS011;16365;51.598;7.668;2023-02-21T07:04:47;96.20;;;40.13;;
29382;SDS011;16365;51.598;7.668;2023-02-21T07:07:14;96.53;;;41.28;;
29382;SDS011;16365;51.598;7.668;2023-02-21T07:09:42;96.28;;;41.33;;
29382;SDS011;16365;51.598;7.668;2023-02-21T07:12:10;105.60;;;41.33;;
29382;SDS011;16365;51.598;7.668;2023-02-21T07:14:36;101.88;;;40.60;;
29382;SDS011;16365;51.598;7.668;2023-02-21T07:17:07;97.55;;;39.67;;
29382;SDS011;16365;51.598;7.668;2023-02-21T07:19:35;99.72;;;41.30;;
29382;SDS011;16365;51.598;7.668;2023-02-21T07:22:03;95.13;;;39.90;;
29382;SDS011;16365;51.598;7.668;2023-02-21T07:24:29;96.05;;;40.28;;
29382;SDS011;16365;51.598;7.668;2023-02-21T07:26:55;96.57;;;39.88;;
29382;SDS011;16365;51.598;7.668;2023-02-21T07:29:22;96.78;;;41.88;;
29382;SDS011;16365;51.598;7.668;2023-02-21T07:31:49;98.43;;;40.72;;
29382;SDS011;16365;51.598;7.668;2023-02-21T07:34:19;101.72;;;41.55;;
29382;SDS011;16365;51.598;7.668;2023-02-21T07:36:58;101.28;;;41.25;;
29382;SDS011;16365;51.598;7.668;2023-02-21T07:39:28;96.13;;;39.67;;
29382;SDS011;16365;51.598;7.668;2023-02-21T07:41:54;99.30;;;40.25;;
29382;SDS011;16365;51.598;7.668;2023-02-21T07:44:21;97.25;;;41.15;;
29382;SDS011;16365;51.598;7.668;2023-02-21T07:46:48;105.68;;;42.17;;
29382;SDS011;16365;51.598;7.668;2023-02-21T07:49:14;100.93;;;43.60;;
29382;SDS011;16365;51.598;7.668;2023-02-21T07:51:41;113.78;;;45.30;;
29382;SDS011;16365;51.598;7.668;2023-02-21T07:54:08;102.30;;;42.58;;
29382;SDS011;16365;51.598;7.668;2023-02-21T07:56:34;107.32;;;42.80;;
29382;SDS011;16365;51.598;7.668;2023-02-21T07:59:01;104.13;;;41.78;;
29382;SDS011;16365;51.598;7.668;2023-02-21T08:01:28;100.78;;;43.30;;
29382;SDS011;16365;51.598;7.668;2023-02-21T08:03:56;104.82;;;43.55;;
29382;SDS011;16365;51.598;7.668;2023-02-21T08:06:25;102.63;;;41.90;;
29382;SDS011;16365;51.598;7.668;2023-02-21T08:08:54;107.95;;;42.92;;
29382;SDS011;16365;51.598;7.668;2023-02-21T08:11:21;107.20;;;43.13;;
29382;SDS011;16365;51.598;7.668;2023-02-21T08:13:49;110.72;;;43.53;;
29382;SDS011;16365;51.598;7.668;2023-02-21T08:16:17;112.00;;;43.80;;
29382;SDS011;16365;51.598;7.668;2023-02-21T08:18:46;108.75;;;43.88;;
29382;SDS011;16365;51.598;7.668;2023-02-21T08:21:13;109.07;;;44.67;;
29382;SDS011;16365;51.598;7.668;2023-02-21T08:23:40;108.18;;;43.58;;
29382;SDS011;16365;51.598;7.668;2023-02-21T08:26:10;109.28;;;44.75;;
29382;SDS011;16365;51.598;7.668;2023-02-21T08:28:37;110.72;;;43.28;;
29382;SDS011;16365;51.598;7.668;2023-02-21T08:31:03;103.93;;;41.72;;
29382;SDS011;16365;51.598;7.668;2023-02-21T08:33:30;115.85;;;43.40;;
29382;SDS011;16365;51.598;7.668;2023-02-21T08:35:57;111.30;;;43.95;;
29382;SDS011;16365;51.598;7.668;2023-02-21T08:38:24;105.28;;;44.35;;
29382;SDS011;16365;51.598;7.668;2023-02-21T08:40:52;105.17;;;43.37;;
29382;SDS011;16365;51.598;7.668;2023-02-21T08:43:22;105.43;;;42.72;;
29382;SDS011;16365;51.598;7.668;2023-02-21T08:45:50;104.88;;;42.65;;
29382;SDS011;16365;51.598;7.668;2023-02-21T08:48:20;108.18;;;43.00;;
29382;SDS011;16365;51.598;7.668;2023-02-21T08:50:49;101.72;;;42.90;;
29382;SDS011;16365;51.598;7.668;2023-02-21T08:53:18;101.20;;;41.85;;
29382;SDS011;16365;51.598;7.668;2023-02-21T08:55:45;109.73;;;43.47;;
29382;SDS011;16365;51.598;7.668;2023-02-21T08:58:12;105.07;;;44.35;;
29382;SDS011;16365;51.598;7.668;2023-02-21T09:00:39;112.25;;;44.67;;
29382;SDS011;16365;51.598;7.668;2023-02-21T09:03:06;111.60;;;43.58;;
29382;SDS011;16365;51.598;7.668;2023-02-21T09:05:32;107.43;;;43.58;;
29382;SDS011;16365;51.598;7.668;2023-02-21T09:07:59;105.50;;;42.55;;
29382;SDS011;16365;51.598;7.668;2023-02-21T09:10:28;103.22;;;43.35;;
29382;SDS011;16365;51.598;7.668;2023-02-21T09:12:56;107.55;;;43.38;;
29382;SDS011;16365;51.598;7.668;2023-02-21T09:15:24;102.78;;;42.30;;
29382;SDS011;16365;51.598;7.668;2023-02-21T09:17:51;110.38;;;40.92;;
29382;SDS011;16365;51.598;7.668;2023-02-21T09:20:21;115.10;;;43.28;;
29382;SDS011;16365;51.598;7.668;2023-02-21T09:22:50;125.05;;;43.42;;
29382;SDS011;16365;51.598;7.668;2023-02-21T09:25:32;107.75;;;42.85;;
29382;SDS011;16365;51.598;7.668;2023-02-21T09:27:59;107.10;;;44.53;;
29382;SDS011;16365;51.598;7.668;2023-02-21T09:30:27;105.53;;;43.63;;
29382;SDS011;16365;51.598;7.668;2023-02-21T09:32:57;114.35;;;43.70;;
29382;SDS011;16365;51.598;7.668;2023-02-21T09:35:26;120.20;;;45.70;;
29382;SDS011;16365;51.598;7.668;2023-02-21T09:37:56;105.63;;;44.63;;
29382;SDS011;16365;51.598;7.668;2023-02-21T09:40:43;155.40;;;43.37;;
29382;SDS011;16365;51.598;7.668;2023-02-21T09:43:20;106.65;;;41.88;;
29382;SDS011;16365;51.598;7.668;2023-02-21T09:45:57;218.30;;;47.88;;
29382;SDS011;16365;51.598;7.668;2023-02-21T09:48:27;162.77;;;46.33;;
29382;SDS011;16365;51.598;7.668;2023-02-21T09:50:56;130.15;;;44.47;;
29382;SDS011;16365;51.598;7.668;2023-02-21T09:53:26;109.22;;;41.63;;
29382;SDS011;16365;51.598;7.668;2023-02-21T09:56:07;102.90;;;40.47;;
29382;SDS011;16365;51.598;7.668;2023-02-21T09:59:21;83.65;;;35.15;;
29382;SDS011;16365;51.598;7.668;2023-02-21T10:10:08;86.30;;;34.60;;
29382;SDS011;16365;51.598;7.668;2023-02-21T10:15:34;89.70;;;38.00;;
29382;SDS011;16365;51.598;7.668;2023-02-21T10:20:59;108.60;;;38.75;;
29382;SDS011;16365;51.598;7.668;2023-02-21T10:23:34;88.43;;;36.83;;
29382;SDS011;16365;51.598;7.668;2023-02-21T10:26:08;136.40;;;40.40;;
29382;SDS011;16365;51.598;7.668;2023-02-21T10:28:51;98.55;;;39.95;;
29382;SDS011;16365;51.598;7.668;2023-02-21T10:31:30;131.50;;;42.90;;
29382;SDS011;16365;51.598;7.668;2023-02-21T10:34:03;146.52;;;42.92;;
29382;SDS011;16365;51.598;7.668;2023-02-21T10:36:36;135.20;;;41.40;;
29382;SDS011;16365;51.598;7.668;2023-02-21T10:39:11;105.00;;;39.53;;
29382;SDS011;16365;51.598;7.668;2023-02-21T10:41:43;94.22;;;37.22;;
29382;SDS011;16365;51.598;7.668;2023-02-21T10:44:16;86.20;;;36.33;;
29382;SDS011;16365;51.598;7.668;2023-02-21T10:52:34;82.78;;;33.55;;
29382;SDS011;16365;51.598;7.668;2023-02-21T10:55:22;83.15;;;35.13;;
29382;SDS011;16365;51.598;7.668;2023-02-21T10:58:04;77.35;;;32.10;;
29382;SDS011;16365;51.598;7.668;2023-02-21T11:00:36;75.40;;;31.35;;
29382;SDS011;16365;51.598;7.668;2023-02-21T11:05:50;72.57;;;30.30;;
29382;SDS011;16365;51.598;7.668;2023-02-21T11:11:03;75.57;;;31.33;;
29382;SDS011;16365;51.598;7.668;2023-02-21T11:16:34;73.95;;;30.20;;
29382;SDS011;16365;51.598;7.668;2023-02-21T11:19:05;73.55;;;31.83;;
29382;SDS011;16365;51.598;7.668;2023-02-21T11:21:33;74.10;;;34.90;;
29382;SDS011;16365;51.598;7.668;2023-02-21T11:24:04;61.83;;;27.83;;
29382;SDS011;16365;51.598;7.668;2023-02-21T11:26:38;56.35;;;26.85;;
29382;SDS011;16365;51.598;7.668;2023-02-21T11:29:17;59.15;;;24.90;;
29382;SDS011;16365;51.598;7.668;2023-02-21T11:31:51;55.97;;;26.03;;
29382;SDS011;16365;51.598;7.668;2023-02-21T11:34:25;58.38;;;27.52;;
29382;SDS011;16365;51.598;7.668;2023-02-21T11:36:55;54.38;;;25.55;;
29382;SDS011;16365;51.598;7.668;2023-02-21T11:39:31;57.22;;;25.83;;
29382;SDS011;16365;51.598;7.668;2023-02-21T11:41:59;54.05;;;26.38;;
29382;SDS011;16365;51.598;7.668;2023-02-21T11:44:30;61.67;;;28.05;;
29382;SDS011;16365;51.598;7.668;2023-02-21T11:49:52;56.88;;;25.40;;
29382;SDS011;16365;51.598;7.668;2023-02-21T11:52:36;56.95;;;26.30;;
29382;SDS011;16365;51.598;7.668;2023-02-21T11:55:11;59.78;;;28.02;;
29382;SDS011;16365;51.598;7.668;2023-02-21T12:00:43;66.05;;;31.25;;
29382;SDS011;16365;51.598;7.668;2023-02-21T12:06:04;64.22;;;29.77;;
29382;SDS011;16365;51.598;7.668;2023-02-21T12:08:49;61.53;;;28.55;;
29382;SDS011;16365;51.598;7.668;2023-02-21T12:21:02;72.75;;;37.63;;
29382;SDS011;16365;51.598;7.668;2023-02-21T12:29:24;46.17;;;22.63;;
29382;SDS011;16365;51.598;7.668;2023-02-21T12:48:43;30.77;;;15.93;;
29382;SDS011;16365;51.598;7.668;2023-02-21T12:51:17;31.80;;;15.15;;
29382;SDS011;16365;51.598;7.668;2023-02-21T12:54:04;42.20;;;17.08;;
29382;SDS011;16365;51.598;7.668;2023-02-21T12:56:52;31.08;;;16.42;;
29382;SDS011;16365;51.598;7.668;2023-02-21T12:59:24;38.30;;;17.27;;
29382;SDS011;16365;51.598;7.668;2023-02-21T13:02:03;33.45;;;16.98;;
29382;SDS011;16365;51.598;7.668;2023-02-21T13:04:44;34.10;;;17.38;;
29382;SDS011;16365;51.598;7.668;2023-02-21T13:07:25;37.08;;;17.10;;
29382;SDS011;16365;51.598;7.668;2023-02-21T13:10:17;36.67;;;18.67;;
29382;SDS011;16365;51.598;7.668;2023-02-21T13:18:01;33.47;;;17.88;;
29382;SDS011;16365;51.598;7.668;2023-02-21T13:20:40;36.03;;;18.95;;
29382;SDS011;16365;51.598;7.668;2023-02-21T13:29:40;36.80;;;19.08;;
29382;SDS011;16365;51.598;7.668;2023-02-21T13:32:13;38.55;;;21.33;;
29382;SDS011;16365;51.598;7.668;2023-02-21T13:37:21;44.85;;;21.27;;
29382;SDS011;16365;51.598;7.668;2023-02-21T13:39:52;42.53;;;21.40;;
29382;SDS011;16365;51.598;7.668;2023-02-21T13:42:27;41.88;;;20.98;;
29382;SDS011;16365;51.598;7.668;2023-02-21T13:48:08;41.15;;;20.50;;
29382;SDS011;16365;51.598;7.668;2023-02-21T13:53:17;38.63;;;20.35;;
29382;SDS011;16365;51.598;7.668;2023-02-21T13:58:44;57.72;;;21.88;;
29382;SDS011;16365;51.598;7.668;2023-02-21T14:04:02;45.78;;;21.33;;
29382;SDS011;16365;51.598;7.668;2023-02-21T14:07:07;54.97;;;21.85;;
29382;SDS011;16365;51.598;7.668;2023-02-21T14:09:39;43.42;;;22.35;;
29382;SDS011;16365;51.598;7.668;2023-02-21T14:12:09;45.63;;;24.80;;
29382;SDS011;16365;51.598;7.668;2023-02-21T14:14:41;60.35;;;34.28;;
29382;SDS011;16365;51.598;7.668;2023-02-21T14:17:09;39.72;;;22.98;;
29382;SDS011;16365;51.598;7.668;2023-02-21T14:22:29;43.13;;;22.50;;
29382;SDS011;16365;51.598;7.668;2023-02-21T14:25:04;51.10;;;24.77;;
29382;SDS011;16365;51.598;7.668;2023-02-21T14:27:37;92.07;;;25.20;;
29382;SDS011;16365;51.598;7.668;2023-02-21T14:37:58;88.22;;;57.45;;
29382;SDS011;16365;51.598;7.668;2023-02-21T14:54:25;95.45;;;53.25;;
29382;SDS011;16365;51.598;7.668;2023-02-21T15:00:46;68.03;;;37.65;;
29382;SDS011;16365;51.598;7.668;2023-02-21T15:03:37;50.97;;;29.50;;
29382;SDS011;16365;51.598;7.668;2023-02-21T15:06:13;58.90;;;32.70;;
29382;SDS011;16365;51.598;7.668;2023-02-21T15:08:48;52.63;;;30.85;;
29382;SDS011;16365;51.598;7.668;2023-02-21T15:11:35;42.58;;;23.70;;
29382;SDS011;16365;51.598;7.668;2023-02-21T15:16:49;42.08;;;21.55;;
29382;SDS011;16365;51.598;7.668;2023-02-21T15:19:25;45.00;;;22.10;;
29382;SDS011;16365;51.598;7.668;2023-02-21T15:25:10;39.75;;;20.30;;
29382;SDS011;16365;51.598;7.668;2023-02-21T15:30:25;38.72;;;20.50;;
29382;SDS011;16365;51.598;7.668;2023-02-21T15:33:10;38.05;;;20.33;;
29382;SDS011;16365;51.598;7.668;2023-02-21T15:35:44;34.55;;;19.23;;
29382;SDS011;16365;51.598;7.668;2023-02-21T15:38:25;40.20;;;21.40;;
29382;SDS011;16365;51.598;7.668;2023-02-21T15:40:57;41.95;;;22.75;;
29382;SDS011;16365;51.598;7.668;2023-02-21T15:43:45;40.50;;;21.35;;
29382;SDS011;16365;51.598;7.668;2023-02-21T15:46:31;42.95;;;22.42;;
29382;SDS011;16365;51.598;7.668;2023-02-21T15:49:08;45.80;;;21.95;;
29382;SDS011;16365;51.598;7.668;2023-02-21T15:51:46;42.47;;;22.40;;
29382;SDS011;16365;51.598;7.668;2023-02-21T15:57:15;41.40;;;21.08;;
29382;SDS011;16365;51.598;7.668;2023-02-21T16:06:14;41.53;;;21.23;;
29382;SDS011;16365;51.598;7.668;2023-02-21T16:09:06;47.05;;;23.25;;
29382;SDS011;16365;51.598;7.668;2023-02-21T16:11:55;45.63;;;24.20;;
29382;SDS011;16365;51.598;7.668;2023-02-21T16:14:38;47.55;;;22.60;;
29382;SDS011;16365;51.598;7.668;2023-02-21T16:19:48;44.20;;;22.73;;
29382;SDS011;16365;51.598;7.668;2023-02-21T16:22:22;43.42;;;22.90;;
29382;SDS011;16365;51.598;7.668;2023-02-21T16:27:46;47.83;;;23.30;;
29382;SDS011;16365;51.598;7.668;2023-02-21T16:30:24;52.38;;;26.60;;
29382;SDS011;16365;51.598;7.668;2023-02-21T16:32:59;54.17;;;27.08;;
29382;SDS011;16365;51.598;7.668;2023-02-21T16:35:28;51.60;;;25.73;;
29382;SDS011;16365;51.598;7.668;2023-02-21T16:38:01;62.38;;;31.30;;
29382;SDS011;16365;51.598;7.668;2023-02-21T16:40:35;61.65;;;32.10;;
29382;SDS011;16365;51.598;7.668;2023-02-21T16:43:02;54.47;;;28.13;;
29382;SDS011;16365;51.598;7.668;2023-02-21T16:45:30;50.20;;;24.50;;
29382;SDS011;16365;51.598;7.668;2023-02-21T16:48:02;49.70;;;23.02;;
29382;SDS011;16365;51.598;7.668;2023-02-21T16:50:33;44.45;;;21.58;;
29382;SDS011;16365;51.598;7.668;2023-02-21T16:53:02;43.22;;;21.40;;
29382;SDS011;16365;51.598;7.668;2023-02-21T16:55:32;48.70;;;22.63;;
29382;SDS011;16365;51.598;7.668;2023-02-21T17:00:28;47.30;;;23.48;;
29382;SDS011;16365;51.598;7.668;2023-02-21T17:02:57;50.35;;;24.00;;
29382;SDS011;16365;51.598;7.668;2023-02-21T17:05:25;48.03;;;23.23;;
29382;SDS011;16365;51.598;7.668;2023-02-21T17:07:52;46.88;;;21.90;;
29382;SDS011;16365;51.598;7.668;2023-02-21T17:10:20;47.03;;;22.83;;
29382;SDS011;16365;51.598;7.668;2023-02-21T17:12:48;39.65;;;20.42;;
29382;SDS011;16365;51.598;7.668;2023-02-21T17:15:17;39.83;;;20.23;;
29382;SDS011;16365;51.598;7.668;2023-02-21T17:17:46;44.78;;;22.13;;
29382;SDS011;16365;51.598;7.668;2023-02-21T17:20:18;48.42;;;22.65;;
29382;SDS011;16365;51.598;7.668;2023-02-21T17:22:48;53.33;;;25.23;;
29382;SDS011;16365;51.598;7.668;2023-02-21T17:25:17;57.92;;;27.23;;
29382;SDS011;16365;51.598;7.668;2023-02-21T17:27:44;45.90;;;22.55;;
29382;SDS011;16365;51.598;7.668;2023-02-21T17:30:12;46.10;;;21.80;;
29382;SDS011;16365;51.598;7.668;2023-02-21T17:32:43;48.28;;;21.67;;
29382;SDS011;16365;51.598;7.668;2023-02-21T17:40:13;36.50;;;18.50;;
29382;SDS011;16365;51.598;7.668;2023-02-21T17:42:40;44.47;;;22.45;;
29382;SDS011;16365;51.598;7.668;2023-02-21T17:45:07;50.22;;;22.95;;
29382;SDS011;16365;51.598;7.668;2023-02-21T17:47:34;57.63;;;32.20;;
29382;SDS011;16365;51.598;7.668;2023-02-21T17:50:13;49.90;;;23.98;;
29382;SDS011;16365;51.598;7.668;2023-02-21T17:52:40;53.83;;;25.35;;
29382;SDS011;16365;51.598;7.668;2023-02-21T17:55:09;50.87;;;25.23;;
29382;SDS011;16365;51.598;7.668;2023-02-21T17:57:41;48.97;;;23.38;;
29382;SDS011;16365;51.598;7.668;2023-02-21T18:00:10;57.17;;;25.73;;
29382;SDS011;16365;51.598;7.668;2023-02-21T18:02:43;48.78;;;24.45;;
29382;SDS011;16365;51.598;7.668;2023-02-21T18:05:10;53.53;;;23.85;;
29382;SDS011;16365;51.598;7.668;2023-02-21T18:07:37;51.22;;;24.25;;
29382;SDS011;16365;51.598;7.668;2023-02-21T18:10:03;54.50;;;23.35;;
29382;SDS011;16365;51.598;7.668;2023-02-21T18:12:30;55.45;;;24.90;;